Killin, United Kingdom
Current Conditions -  °F | °C
As of 1:50 PM on Saturday 25 Oct 2014 (Local Time) from EGPF Reporting Station
Broken Clouds Broken Clouds  
Wind Chill: 12°   Ceiling: 3700
Heat Index: 12°   Visibility: 6mi
Dew Point:   Wind: 22mph
Humidity: 82%   Direction: 220°SW
Pressure: 29.68"   Gusts: NA
Location:  56.45°N, 4.33°W
Report Text: EGPF 251250Z 22019KT 9999 SCT022 BKN037 12/09 Q1005
Loading
Personal Weather Stations






























Interactive Weather Map
Tropical Storm Tracking
New forecast layout! Learn more

10-Day Weather Forecast

Advertisements
Track Severe Weather on mobile